Date,TemperatureHighF,TemperatureAvgF,TemperatureLowF,DewpointHighF,DewpointAvgF,DewpointLowF,HumidityHigh,HumidityAvg,HumidityLow,PressureMaxIn,PressureMinIn,WindSpeedMaxMPH,WindSpeedAvgMPH,GustSpeedMaxMPH,PrecipitationSumIn
2012-12-1,52,41,32,49,39,31,99,91,71,29.94,29.67,19,4,19,0.00
2012-12-2,59,43,29,43,35,27,98,77,49,29.95,29.70,19,4,19,0.00
2012-12-3,55,48,38,52,39,24,100,73,39,29.96,29.50,31,8,31,0.01
2012-12-4,42,34,21,25,21,12,67,58,50,30.34,29.95,16,4,16,0.00
2012-12-5,47,33,21,31,20,11,68,60,48,30.35,29.75,31,9,31,0.00
2012-12-6,48,42,32,36,30,22,83,65,44,29.96,29.73,24,7,24,0.12
2012-12-7,32,29,28,26,22,20,93,76,65,29.98,29.91,17,4,17,0.00
2012-12-8,32,28,25,31,26,24,96,92,81,30.02,29.84,21,3,21,0.00
2012-12-9,33,24,8,33,21,3,98,90,79,30.02,29.75,40,10,40,0.00
2012-12-10,21,11,1,12,2,-8,79,67,59,30.04,29.83,26,6,26,0.00
2012-12-11,32,25,16,25,19,11,85,78,67,29.92,29.80,20,3,20,0.00
2012-12-12,47,36,25,22,19,17,74,50,33,29.90,29.77,26,7,26,0.05
2012-12-13,36,28,20,23,19,16,88,70,48,30.10,29.81,18,4,18,0.00
2012-12-14,49,35,19,33,25,16,88,69,46,30.09,29.59,19,3,19,0.00
2012-12-15,42,37,29,41,36,28,99,95,68,29.60,29.41,23,4,23,0.40
2012-12-16,30,20,16,28,17,12,95,87,83,29.82,29.59,21,8,21,0.00
2012-12-17,28,23,19,26,22,17,94,92,91,29.79,29.61,7,0,7,0.01
2012-12-18,31,29,27,29,27,26,97,94,90,29.83,29.50,14,1,14,0.00
2012-12-19,34,26,20,29,23,18,94,88,76,29.98,29.82,24,3,24,0.01
2012-12-20,20,16,8,18,12,3,92,85,78,30.17,29.86,38,15,38,0.00
2012-12-21,20,11,4,12,5,-2,81,77,66,30.33,30.16,15,4,15,0.00
2012-12-22,25,18,10,18,11,5,81,76,66,30.16,29.93,23,6,23,0.00
2012-12-23,14,11,8,10,7,4,86,84,81,30.10,30.01,22,5,22,0.00
2012-12-24,13,7,-4,9,2,-10,85,79,71,30.36,29.99,22,10,22,0.00
2012-12-25,7,0,-5,1,-7,-100,78,74,73,30.55,30.36,16,-3,16,0.00
2012-12-26,12,7,1,7,0,-4,85,74,64,30.41,30.22,13,3,13,0.00
2012-12-27,19,15,8,16,11,4,89,85,81,30.23,30.05,12,2,12,0.00
2012-12-28,19,16,11,16,13,8,89,87,84,30.08,29.98,17,5,17,0.00
2012-12-29,12,10,6,9,6,2,86,84,82,30.21,30.06,12,2,12,0.00
2012-12-30,31,17,5,23,12,1,89,79,66,30.21,29.88,20,4,20,0.00
2012-12-31,19,10,-3,15,4,-9,86,76,69,30.30,30.03,26,8,26,0.00